sensor_id;sensor_type;location;lat;lon;timestamp;pressure;altitude;pressure_sealevel;temperature;humidity
77019;BME280;66044;53.142;17.962;2023-08-06T00:00:27;100281.03;;;15.97;77.28
77019;BME280;66044;53.142;17.962;2023-08-06T00:03:13;100267.52;;;15.93;77.35
77019;BME280;66044;53.142;17.962;2023-08-06T00:05:43;100265.29;;;15.88;77.58
77019;BME280;66044;53.142;17.962;2023-08-06T00:08:09;100260.32;;;15.85;77.61
77019;BME280;66044;53.142;17.962;2023-08-06T00:10:36;100248.77;;;15.83;77.70
77019;BME280;66044;53.142;17.962;2023-08-06T00:13:02;100242.94;;;15.81;77.78
77019;BME280;66044;53.142;17.962;2023-08-06T00:15:29;100226.35;;;15.80;77.65
77019;BME280;66044;53.142;17.962;2023-08-06T00:17:55;100219.08;;;15.79;77.71
77019;BME280;66044;53.142;17.962;2023-08-06T00:20:21;100213.04;;;15.78;77.88
77019;BME280;66044;53.142;17.962;2023-08-06T00:22:48;100207.16;;;15.77;77.88
77019;BME280;66044;53.142;17.962;2023-08-06T00:25:14;100211.95;;;15.77;77.85
77019;BME280;66044;53.142;17.962;2023-08-06T00:27:41;100215.80;;;15.76;78.16
77019;BME280;66044;53.142;17.962;2023-08-06T00:30:07;100209.69;;;15.76;77.96
77019;BME280;66044;53.142;17.962;2023-08-06T00:32:34;100201.34;;;15.76;78.10
77019;BME280;66044;53.142;17.962;2023-08-06T00:35:00;100192.13;;;15.76;78.34
77019;BME280;66044;53.142;17.962;2023-08-06T00:37:27;100189.05;;;15.77;78.38
77019;BME280;66044;53.142;17.962;2023-08-06T00:39:53;100183.79;;;15.77;78.49
77019;BME280;66044;53.142;17.962;2023-08-06T00:42:19;100171.33;;;15.77;78.51
77019;BME280;66044;53.142;17.962;2023-08-06T00:44:47;100163.91;;;15.77;78.39
77019;BME280;66044;53.142;17.962;2023-08-06T00:47:13;100163.45;;;15.78;78.69
77019;BME280;66044;53.142;17.962;2023-08-06T00:49:40;100164.23;;;15.78;78.41
77019;BME280;66044;53.142;17.962;2023-08-06T00:52:07;100162.83;;;15.78;78.38
77019;BME280;66044;53.142;17.962;2023-08-06T00:54:34;100158.27;;;15.78;78.54
77019;BME280;66044;53.142;17.962;2023-08-06T00:57:01;100153.14;;;15.79;78.45
77019;BME280;66044;53.142;17.962;2023-08-06T00:59:29;100144.34;;;15.80;78.57
77019;BME280;66044;53.142;17.962;2023-08-06T01:01:57;100132.59;;;15.81;78.71
77019;BME280;66044;53.142;17.962;2023-08-06T01:04:24;100119.37;;;15.82;78.72
77019;BME280;66044;53.142;17.962;2023-08-06T01:07:02;100106.52;;;15.82;78.54
77019;BME280;66044;53.142;17.962;2023-08-06T01:09:38;100101.27;;;15.83;78.74
77019;BME280;66044;53.142;17.962;2023-08-06T01:12:11;100096.63;;;15.82;78.69
77019;BME280;66044;53.142;17.962;2023-08-06T01:14:55;100085.33;;;15.83;78.92
77019;BME280;66044;53.142;17.962;2023-08-06T01:17:24;100078.44;;;15.83;78.69
77019;BME280;66044;53.142;17.962;2023-08-06T01:19:53;100071.85;;;15.82;78.80
77019;BME280;66044;53.142;17.962;2023-08-06T01:22:19;100063.87;;;15.81;78.75
77019;BME280;66044;53.142;17.962;2023-08-06T01:24:49;100051.33;;;15.80;78.85
77019;BME280;66044;53.142;17.962;2023-08-06T01:27:32;100031.73;;;15.79;78.71
77019;BME280;66044;53.142;17.962;2023-08-06T01:30:09;100013.87;;;15.77;78.92
77019;BME280;66044;53.142;17.962;2023-08-06T01:32:44;100007.11;;;15.76;79.12
77019;BME280;66044;53.142;17.962;2023-08-06T01:35:15;100007.18;;;15.74;78.91
77019;BME280;66044;53.142;17.962;2023-08-06T01:37:42;99999.81;;;15.72;78.86
77019;BME280;66044;53.142;17.962;2023-08-06T01:40:11;99997.33;;;15.71;79.00
77019;BME280;66044;53.142;17.962;2023-08-06T01:42:40;99990.21;;;15.71;79.23
77019;BME280;66044;53.142;17.962;2023-08-06T01:45:08;99991.14;;;15.71;79.24
77019;BME280;66044;53.142;17.962;2023-08-06T01:47:35;99988.27;;;15.69;79.19
77019;BME280;66044;53.142;17.962;2023-08-06T01:50:02;99980.77;;;15.69;79.45
77019;BME280;66044;53.142;17.962;2023-08-06T01:52:29;99974.20;;;15.70;79.40
77019;BME280;66044;53.142;17.962;2023-08-06T01:54:55;99971.65;;;15.72;79.56
77019;BME280;66044;53.142;17.962;2023-08-06T01:57:22;99963.06;;;15.73;79.44
77019;BME280;66044;53.142;17.962;2023-08-06T01:59:48;99956.11;;;15.74;79.62
77019;BME280;66044;53.142;17.962;2023-08-06T02:02:15;99949.63;;;15.75;79.51
77019;BME280;66044;53.142;17.962;2023-08-06T02:04:41;99945.14;;;15.75;79.72
77019;BME280;66044;53.142;17.962;2023-08-06T02:07:08;99937.23;;;15.73;79.68
77019;BME280;66044;53.142;17.962;2023-08-06T02:09:34;99928.01;;;15.72;79.71
77019;BME280;66044;53.142;17.962;2023-08-06T02:12:02;99913.39;;;15.71;79.57
77019;BME280;66044;53.142;17.962;2023-08-06T02:14:28;99903.58;;;15.71;79.92
77019;BME280;66044;53.142;17.962;2023-08-06T02:16:55;99894.36;;;15.70;79.74
77019;BME280;66044;53.142;17.962;2023-08-06T02:19:21;99875.88;;;15.69;79.64
77019;BME280;66044;53.142;17.962;2023-08-06T02:21:48;99857.83;;;15.67;79.75
77019;BME280;66044;53.142;17.962;2023-08-06T02:24:14;99849.77;;;15.65;79.70
77019;BME280;66044;53.142;17.962;2023-08-06T02:26:41;99845.90;;;15.64;80.17
77019;BME280;66044;53.142;17.962;2023-08-06T02:29:07;99837.69;;;15.64;80.05
77019;BME280;66044;53.142;17.962;2023-08-06T02:31:34;99843.27;;;15.63;79.86
77019;BME280;66044;53.142;17.962;2023-08-06T02:34:00;99845.42;;;15.61;79.94
77019;BME280;66044;53.142;17.962;2023-08-06T02:36:26;99850.30;;;15.61;80.17
77019;BME280;66044;53.142;17.962;2023-08-06T02:38:55;99851.83;;;15.60;80.11
77019;BME280;66044;53.142;17.962;2023-08-06T02:41:22;99852.60;;;15.59;80.09
77019;BME280;66044;53.142;17.962;2023-08-06T02:43:48;99858.64;;;15.60;80.21
77019;BME280;66044;53.142;17.962;2023-08-06T02:46:14;99859.34;;;15.60;80.10
77019;BME280;66044;53.142;17.962;2023-08-06T02:48:41;99853.14;;;15.60;80.09
77019;BME280;66044;53.142;17.962;2023-08-06T02:51:07;99846.25;;;15.59;80.27
77019;BME280;66044;53.142;17.962;2023-08-06T02:53:33;99840.30;;;15.59;80.44
77019;BME280;66044;53.142;17.962;2023-08-06T02:56:00;99842.48;;;15.59;80.37
77019;BME280;66044;53.142;17.962;2023-08-06T02:58:27;99847.04;;;15.60;80.34
77019;BME280;66044;53.142;17.962;2023-08-06T03:01:04;99838.23;;;15.61;80.28
77019;BME280;66044;53.142;17.962;2023-08-06T03:03:31;99839.16;;;15.61;80.28
77019;BME280;66044;53.142;17.962;2023-08-06T03:05:58;99841.02;;;15.61;80.50
77019;BME280;66044;53.142;17.962;2023-08-06T03:08:25;99841.72;;;15.64;80.64
77019;BME280;66044;53.142;17.962;2023-08-06T03:10:52;99841.88;;;15.66;80.66
77019;BME280;66044;53.142;17.962;2023-08-06T03:13:19;99835.87;;;15.68;80.58
77019;BME280;66044;53.142;17.962;2023-08-06T03:16:12;99834.79;;;15.71;80.46
77019;BME280;66044;53.142;17.962;2023-08-06T03:18:38;99838.67;;;15.75;80.65
77019;BME280;66044;53.142;17.962;2023-08-06T03:21:05;99841.48;;;15.78;80.63
77019;BME280;66044;53.142;17.962;2023-08-06T03:23:32;99846.20;;;15.82;80.54
77019;BME280;66044;53.142;17.962;2023-08-06T03:26:02;99841.74;;;15.85;80.34
77019;BME280;66044;53.142;17.962;2023-08-06T03:28:29;99841.43;;;15.88;80.51
77019;BME280;66044;53.142;17.962;2023-08-06T03:31:02;99848.65;;;15.91;80.37
77019;BME280;66044;53.142;17.962;2023-08-06T03:33:29;99845.80;;;15.95;80.47
77019;BME280;66044;53.142;17.962;2023-08-06T03:35:56;99833.12;;;15.98;80.29
77019;BME280;66044;53.142;17.962;2023-08-06T03:38:23;99828.48;;;16.00;80.06
77019;BME280;66044;53.142;17.962;2023-08-06T03:40:49;99822.60;;;16.02;80.26
77019;BME280;66044;53.142;17.962;2023-08-06T03:43:16;99813.85;;;16.04;80.22
77019;BME280;66044;53.142;17.962;2023-08-06T03:45:42;99796.69;;;16.06;80.14
77019;BME280;66044;53.142;17.962;2023-08-06T03:48:09;99783.77;;;16.08;79.87
77019;BME280;66044;53.142;17.962;2023-08-06T03:50:35;99768.21;;;16.07;80.02
77019;BME280;66044;53.142;17.962;2023-08-06T03:53:02;99754.97;;;16.08;79.98
77019;BME280;66044;53.142;17.962;2023-08-06T03:55:28;99736.07;;;16.10;79.97
77019;BME280;66044;53.142;17.962;2023-08-06T03:57:55;99722.37;;;16.10;79.93
77019;BME280;66044;53.142;17.962;2023-08-06T04:00:21;99706.11;;;16.09;80.10
77019;BME280;66044;53.142;17.962;2023-08-06T04:02:48;99684.28;;;16.09;79.98
77019;BME280;66044;53.142;17.962;2023-08-06T04:05:15;99669.34;;;16.09;80.06
77019;BME280;66044;53.142;17.962;2023-08-06T04:07:43;99646.30;;;16.07;80.21
77019;BME280;66044;53.142;17.962;2023-08-06T04:10:09;99635.52;;;16.06;80.27
77019;BME280;66044;53.142;17.962;2023-08-06T04:12:36;99644.59;;;16.07;80.14
77019;BME280;66044;53.142;17.962;2023-08-06T04:15:06;99642.09;;;16.09;80.22
77019;BME280;66044;53.142;17.962;2023-08-06T04:17:33;99629.41;;;16.11;80.12
77019;BME280;66044;53.142;17.962;2023-08-06T04:19:59;99626.16;;;16.13;80.22
77019;BME280;66044;53.142;17.962;2023-08-06T04:22:26;99639.71;;;16.15;80.17
77019;BME280;66044;53.142;17.962;2023-08-06T04:24:53;99643.27;;;16.17;80.18
77019;BME280;66044;53.142;17.962;2023-08-06T04:27:19;99637.54;;;16.20;80.11
77019;BME280;66044;53.142;17.962;2023-08-06T04:29:46;99637.98;;;16.24;80.25
77019;BME280;66044;53.142;17.962;2023-08-06T04:32:13;99640.16;;;16.29;80.05
77019;BME280;66044;53.142;17.962;2023-08-06T04:34:39;99632.80;;;16.32;80.01
77019;BME280;66044;53.142;17.962;2023-08-06T04:37:05;99635.04;;;16.36;80.02
77019;BME280;66044;53.142;17.962;2023-08-06T04:39:32;99638.91;;;16.39;79.79
77019;BME280;66044;53.142;17.962;2023-08-06T04:42:00;99636.97;;;16.43;79.77
77019;BME280;66044;53.142;17.962;2023-08-06T04:44:27;99642.45;;;16.48;79.65
77019;BME280;66044;53.142;17.962;2023-08-06T04:46:53;99637.34;;;16.52;79.62
77019;BME280;66044;53.142;17.962;2023-08-06T04:49:20;99633.91;;;16.57;79.77
77019;BME280;66044;53.142;17.962;2023-08-06T04:51:47;99626.10;;;16.62;79.62
77019;BME280;66044;53.142;17.962;2023-08-06T04:54:13;99620.21;;;16.66;79.37
77019;BME280;66044;53.142;17.962;2023-08-06T04:56:40;99596.12;;;16.68;79.33
77019;BME280;66044;53.142;17.962;2023-08-06T04:59:06;99572.02;;;16.67;79.31
77019;BME280;66044;53.142;17.962;2023-08-06T05:01:33;99563.11;;;16.64;79.43
77019;BME280;66044;53.142;17.962;2023-08-06T05:03:59;99549.33;;;16.61;79.37
77019;BME280;66044;53.142;17.962;2023-08-06T05:06:26;99529.02;;;16.62;79.37
77019;BME280;66044;53.142;17.962;2023-08-06T05:08:52;99533.37;;;16.62;79.37
77019;BME280;66044;53.142;17.962;2023-08-06T05:11:18;99530.66;;;16.60;79.28
77019;BME280;66044;53.142;17.962;2023-08-06T05:13:45;99548.56;;;16.60;79.40
77019;BME280;66044;53.142;17.962;2023-08-06T05:16:11;99565.43;;;16.63;79.57
77019;BME280;66044;53.142;17.962;2023-08-06T05:18:38;99572.48;;;16.67;79.66
77019;BME280;66044;53.142;17.962;2023-08-06T05:21:05;99569.36;;;16.73;79.63
77019;BME280;66044;53.142;17.962;2023-08-06T05:23:32;99558.09;;;16.77;79.61
77019;BME280;66044;53.142;17.962;2023-08-06T05:25:58;99560.95;;;16.82;79.68
77019;BME280;66044;53.142;17.962;2023-08-06T05:28:24;99554.10;;;16.86;79.71
77019;BME280;66044;53.142;17.962;2023-08-06T05:30:51;99558.98;;;16.90;79.69
77019;BME280;66044;53.142;17.962;2023-08-06T05:33:17;99558.02;;;16.93;79.75
77019;BME280;66044;53.142;17.962;2023-08-06T05:35:44;99559.10;;;16.96;79.50
77019;BME280;66044;53.142;17.962;2023-08-06T05:38:10;99565.14;;;16.98;79.52
77019;BME280;66044;53.142;17.962;2023-08-06T05:40:37;99569.45;;;17.00;79.75
77019;BME280;66044;53.142;17.962;2023-08-06T05:43:03;99568.83;;;17.03;79.61
77019;BME280;66044;53.142;17.962;2023-08-06T05:45:29;99565.71;;;17.07;79.73
77019;BME280;66044;53.142;17.962;2023-08-06T05:47:56;99558.17;;;17.10;79.67
77019;BME280;66044;53.142;17.962;2023-08-06T05:50:24;99560.34;;;17.12;79.68
77019;BME280;66044;53.142;17.962;2023-08-06T05:52:51;99563.55;;;17.16;79.70
77019;BME280;66044;53.142;17.962;2023-08-06T05:55:19;99561.92;;;17.19;79.75
77019;BME280;66044;53.142;17.962;2023-08-06T05:57:46;99557.02;;;17.22;79.68
77019;BME280;66044;53.142;17.962;2023-08-06T06:00:13;99558.63;;;17.25;79.73
77019;BME280;66044;53.142;17.962;2023-08-06T06:02:40;99558.23;;;17.28;79.73
77019;BME280;66044;53.142;17.962;2023-08-06T06:05:06;99547.34;;;17.29;79.74
77019;BME280;66044;53.142;17.962;2023-08-06T06:07:33;99545.02;;;17.31;79.71
77019;BME280;66044;53.142;17.962;2023-08-06T06:09:59;99530.73;;;17.33;79.88
77019;BME280;66044;53.142;17.962;2023-08-06T06:12:26;99521.46;;;17.38;80.11
77019;BME280;66044;53.142;17.962;2023-08-06T06:14:52;99518.96;;;17.42;80.09
77019;BME280;66044;53.142;17.962;2023-08-06T06:17:19;99519.21;;;17.47;80.06
77019;BME280;66044;53.142;17.962;2023-08-06T06:19:45;99514.71;;;17.50;79.97
77019;BME280;66044;53.142;17.962;2023-08-06T06:22:12;99514.59;;;17.53;80.15
77019;BME280;66044;53.142;17.962;2023-08-06T06:24:38;99514.18;;;17.57;80.13
77019;BME280;66044;53.142;17.962;2023-08-06T06:27:05;99510.89;;;17.60;80.14
77019;BME280;66044;53.142;17.962;2023-08-06T06:29:31;99503.84;;;17.63;80.06
77019;BME280;66044;53.142;17.962;2023-08-06T06:31:58;99496.05;;;17.67;79.99
77019;BME280;66044;53.142;17.962;2023-08-06T06:34:24;99492.52;;;17.70;80.04
77019;BME280;66044;53.142;17.962;2023-08-06T06:36:51;99486.69;;;17.73;80.01
77019;BME280;66044;53.142;17.962;2023-08-06T06:39:17;99475.54;;;17.77;80.12
77019;BME280;66044;53.142;17.962;2023-08-06T06:41:44;99478.77;;;17.81;80.08
77019;BME280;66044;53.142;17.962;2023-08-06T06:44:10;99476.46;;;17.86;80.10
77019;BME280;66044;53.142;17.962;2023-08-06T06:46:37;99480.92;;;17.90;79.96
77019;BME280;66044;53.142;17.962;2023-08-06T06:49:03;99476.23;;;17.92;79.95
77019;BME280;66044;53.142;17.962;2023-08-06T06:51:30;99471.65;;;17.94;80.06
77019;BME280;66044;53.142;17.962;2023-08-06T06:53:58;99470.05;;;17.97;80.12
77019;BME280;66044;53.142;17.962;2023-08-06T06:56:24;99463.83;;;17.98;80.09
77019;BME280;66044;53.142;17.962;2023-08-06T06:58:51;99464.89;;;18.00;80.17
77019;BME280;66044;53.142;17.962;2023-08-06T07:01:18;99460.25;;;18.06;80.26
77019;BME280;66044;53.142;17.962;2023-08-06T07:03:44;99456.29;;;18.13;80.25
77019;BME280;66044;53.142;17.962;2023-08-06T07:06:11;99457.98;;;18.22;80.21
77019;BME280;66044;53.142;17.962;2023-08-06T07:08:38;99449.34;;;18.30;80.07
77019;BME280;66044;53.142;17.962;2023-08-06T07:11:06;99450.63;;;18.38;80.02
77019;BME280;66044;53.142;17.962;2023-08-06T07:13:34;99449.62;;;18.43;79.77
77019;BME280;66044;53.142;17.962;2023-08-06T07:16:00;99443.23;;;18.45;79.77
77019;BME280;66044;53.142;17.962;2023-08-06T07:18:27;99441.65;;;18.48;79.78
77019;BME280;66044;53.142;17.962;2023-08-06T07:20:55;99441.20;;;18.52;79.68
77019;BME280;66044;53.142;17.962;2023-08-06T07:23:23;99438.15;;;18.56;79.59
77019;BME280;66044;53.142;17.962;2023-08-06T07:25:51;99429.71;;;18.58;79.56
77019;BME280;66044;53.142;17.962;2023-08-06T07:28:17;99424.05;;;18.64;79.49
77019;BME280;66044;53.142;17.962;2023-08-06T07:30:44;99418.29;;;18.70;79.57
77019;BME280;66044;53.142;17.962;2023-08-06T07:33:12;99416.09;;;18.76;79.46
77019;BME280;66044;53.142;17.962;2023-08-06T07:35:38;99414.45;;;18.82;79.31
77019;BME280;66044;53.142;17.962;2023-08-06T07:38:05;99414.95;;;18.86;79.20
77019;BME280;66044;53.142;17.962;2023-08-06T07:40:32;99400.50;;;18.90;79.27
77019;BME280;66044;53.142;17.962;2023-08-06T07:42:58;99394.90;;;18.94;79.13
77019;BME280;66044;53.142;17.962;2023-08-06T07:45:25;99391.27;;;18.98;79.07
77019;BME280;66044;53.142;17.962;2023-08-06T07:47:55;99391.23;;;19.02;78.97
77019;BME280;66044;53.142;17.962;2023-08-06T07:50:21;99389.74;;;19.02;78.99
77019;BME280;66044;53.142;17.962;2023-08-06T07:52:48;99380.67;;;19.04;78.87
77019;BME280;66044;53.142;17.962;2023-08-06T07:55:14;99364.73;;;19.04;78.57
77019;BME280;66044;53.142;17.962;2023-08-06T07:57:42;99364.02;;;19.04;78.58
77019;BME280;66044;53.142;17.962;2023-08-06T08:00:08;99364.95;;;19.01;78.51
77019;BME280;66044;53.142;17.962;2023-08-06T08:02:36;99366.48;;;18.98;78.50
77019;BME280;66044;53.142;17.962;2023-08-06T08:05:02;99368.41;;;18.93;78.58
77019;BME280;66044;53.142;17.962;2023-08-06T08:07:29;99371.90;;;18.89;78.59
77019;BME280;66044;53.142;17.962;2023-08-06T08:09:56;99371.74;;;18.88;78.60
77019;BME280;66044;53.142;17.962;2023-08-06T08:12:23;99375.45;;;18.86;78.60
77019;BME280;66044;53.142;17.962;2023-08-06T08:14:49;99369.48;;;18.84;78.71
77019;BME280;66044;53.142;17.962;2023-08-06T08:17:16;99370.04;;;18.84;78.55
77019;BME280;66044;53.142;17.962;2023-08-06T08:19:43;99368.98;;;18.82;78.76
77019;BME280;66044;53.142;17.962;2023-08-06T08:22:09;99361.35;;;18.82;78.50
77019;BME280;66044;53.142;17.962;2023-08-06T08:24:36;99358.88;;;18.81;78.63
77019;BME280;66044;53.142;17.962;2023-08-06T08:27:03;99351.36;;;18.80;78.62
77019;BME280;66044;53.142;17.962;2023-08-06T08:29:29;99339.36;;;18.77;78.93
77019;BME280;66044;53.142;17.962;2023-08-06T08:31:55;99338.88;;;18.78;78.85
77019;BME280;66044;53.142;17.962;2023-08-06T08:34:22;99337.14;;;18.80;78.88
77019;BME280;66044;53.142;17.962;2023-08-06T08:36:48;99327.16;;;18.81;78.87
77019;BME280;66044;53.142;17.962;2023-08-06T08:39:16;99319.70;;;18.81;78.95
77019;BME280;66044;53.142;17.962;2023-08-06T08:41:42;99318.20;;;18.79;79.06
77019;BME280;66044;53.142;17.962;2023-08-06T08:44:09;99319.00;;;18.81;79.08
77019;BME280;66044;53.142;17.962;2023-08-06T08:46:41;99314.69;;;18.84;79.10
77019;BME280;66044;53.142;17.962;2023-08-06T08:49:10;99307.17;;;18.91;79.10
77019;BME280;66044;53.142;17.962;2023-08-06T08:51:37;99305.09;;;18.99;78.93
77019;BME280;66044;53.142;17.962;2023-08-06T08:54:07;99295.27;;;19.09;78.86
77019;BME280;66044;53.142;17.962;2023-08-06T08:56:34;99284.93;;;19.22;78.88
77019;BME280;66044;53.142;17.962;2023-08-06T08:59:01;99286.15;;;19.31;78.51
77019;BME280;66044;53.142;17.962;2023-08-06T09:01:28;99287.86;;;19.35;78.43
77019;BME280;66044;53.142;17.962;2023-08-06T09:03:56;99291.20;;;19.36;78.45
77019;BME280;66044;53.142;17.962;2023-08-06T09:06:25;99291.42;;;19.37;78.26
77019;BME280;66044;53.142;17.962;2023-08-06T09:09:07;99282.45;;;19.33;78.22
77019;BME280;66044;53.142;17.962;2023-08-06T09:11:42;99281.40;;;19.36;78.12
77019;BME280;66044;53.142;17.962;2023-08-06T09:14:09;99278.30;;;19.39;78.14
77019;BME280;66044;53.142;17.962;2023-08-06T09:16:38;99274.50;;;19.42;78.05
77019;BME280;66044;53.142;17.962;2023-08-06T09:19:11;99269.77;;;19.47;78.03
77019;BME280;66044;53.142;17.962;2023-08-06T09:21:45;99266.11;;;19.55;78.09
77019;BME280;66044;53.142;17.962;2023-08-06T09:24:15;99261.80;;;19.59;77.92
77019;BME280;66044;53.142;17.962;2023-08-06T09:26:44;99262.63;;;19.62;77.79
77019;BME280;66044;53.142;17.962;2023-08-06T09:29:11;99258.34;;;19.57;77.60
77019;BME280;66044;53.142;17.962;2023-08-06T09:31:45;99252.73;;;19.54;77.59
77019;BME280;66044;53.142;17.962;2023-08-06T09:34:16;99245.17;;;19.51;77.69
77019;BME280;66044;53.142;17.962;2023-08-06T09:36:46;99238.63;;;19.51;77.75
77019;BME280;66044;53.142;17.962;2023-08-06T09:39:14;99235.65;;;19.56;77.82
77019;BME280;66044;53.142;17.962;2023-08-06T09:41:42;99242.89;;;19.60;77.77
77019;BME280;66044;53.142;17.962;2023-08-06T09:44:20;99242.55;;;19.62;77.64
77019;BME280;66044;53.142;17.962;2023-08-06T09:46:50;99242.64;;;19.61;77.68
77019;BME280;66044;53.142;17.962;2023-08-06T09:49:24;99232.64;;;19.55;77.72
77019;BME280;66044;53.142;17.962;2023-08-06T09:51:51;99224.02;;;19.51;77.78
77019;BME280;66044;53.142;17.962;2023-08-06T09:54:19;99219.47;;;19.48;77.92
77019;BME280;66044;53.142;17.962;2023-08-06T09:56:46;99219.34;;;19.46;77.93
77019;BME280;66044;53.142;17.962;2023-08-06T09:59:13;99213.52;;;19.46;78.07
77019;BME280;66044;53.142;17.962;2023-08-06T10:01:39;99198.52;;;19.49;78.00
77019;BME280;66044;53.142;17.962;2023-08-06T10:04:06;99203.57;;;19.49;78.03
77019;BME280;66044;53.142;17.962;2023-08-06T10:06:37;99201.99;;;19.50;78.15
77019;BME280;66044;53.142;17.962;2023-08-06T10:09:04;99186.73;;;19.52;78.23
77019;BME280;66044;53.142;17.962;2023-08-06T10:11:31;99179.38;;;19.56;78.18
77019;BME280;66044;53.142;17.962;2023-08-06T10:14:07;99171.06;;;19.66;78.04
77019;BME280;66044;53.142;17.962;2023-08-06T10:16:36;99163.30;;;19.82;78.05
77019;BME280;66044;53.142;17.962;2023-08-06T10:19:04;99165.20;;;19.94;77.93
77019;BME280;66044;53.142;17.962;2023-08-06T10:21:31;99173.19;;;19.95;77.72
77019;BME280;66044;53.142;17.962;2023-08-06T10:23:58;99168.98;;;19.90;77.80
77019;BME280;66044;53.142;17.962;2023-08-06T10:26:26;99176.67;;;19.86;77.71
77019;BME280;66044;53.142;17.962;2023-08-06T10:28:54;99178.50;;;19.82;77.84
77019;BME280;66044;53.142;17.962;2023-08-06T10:31:55;99166.36;;;19.81;77.96
77019;BME280;66044;53.142;17.962;2023-08-06T10:34:22;99157.31;;;19.86;78.23
77019;BME280;66044;53.142;17.962;2023-08-06T10:36:48;99161.90;;;19.96;77.90
77019;BME280;66044;53.142;17.962;2023-08-06T10:39:14;99160.20;;;19.94;78.01
77019;BME280;66044;53.142;17.962;2023-08-06T10:41:42;99154.66;;;19.95;78.02
77019;BME280;66044;53.142;17.962;2023-08-06T10:44:11;99154.30;;;19.94;78.00
77019;BME280;66044;53.142;17.962;2023-08-06T10:46:38;99151.11;;;19.97;78.14
77019;BME280;66044;53.142;17.962;2023-08-06T10:49:04;99150.79;;;20.01;78.05
77019;BME280;66044;53.142;17.962;2023-08-06T10:51:33;99139.41;;;20.04;78.17
77019;BME280;66044;53.142;17.962;2023-08-06T10:54:00;99127.89;;;20.10;78.04
77019;BME280;66044;53.142;17.962;2023-08-06T10:56:27;99123.69;;;20.20;77.97
77019;BME280;66044;53.142;17.962;2023-08-06T10:58:55;99120.33;;;20.26;78.02
77019;BME280;66044;53.142;17.962;2023-08-06T11:01:23;99107.20;;;20.34;78.02
77019;BME280;66044;53.142;17.962;2023-08-06T11:03:50;99105.83;;;20.39;77.79
77019;BME280;66044;53.142;17.962;2023-08-06T11:06:20;99107.08;;;20.42;77.75
77019;BME280;66044;53.142;17.962;2023-08-06T11:08:52;99101.89;;;20.44;77.69
77019;BME280;66044;53.142;17.962;2023-08-06T11:11:20;99094.32;;;20.50;77.68
77019;BME280;66044;53.142;17.962;2023-08-06T11:13:48;99090.52;;;20.55;77.59
77019;BME280;66044;53.142;17.962;2023-08-06T11:16:17;99086.95;;;20.58;77.35
77019;BME280;66044;53.142;17.962;2023-08-06T11:18:45;99081.23;;;20.53;77.36
77019;BME280;66044;53.142;17.962;2023-08-06T11:21:11;99078.89;;;20.47;77.42
77019;BME280;66044;53.142;17.962;2023-08-06T11:23:38;99070.52;;;20.48;77.30
77019;BME280;66044;53.142;17.962;2023-08-06T11:26:07;99066.91;;;20.52;77.36
77019;BME280;66044;53.142;17.962;2023-08-06T11:28:34;99062.88;;;20.54;77.34
77019;BME280;66044;53.142;17.962;2023-08-06T11:31:00;99054.81;;;20.52;77.20
77019;BME280;66044;53.142;17.962;2023-08-06T11:33:29;99051.27;;;20.47;77.24
77019;BME280;66044;53.142;17.962;2023-08-06T11:35:57;99045.77;;;20.41;77.24
77019;BME280;66044;53.142;17.962;2023-08-06T11:38:29;99038.92;;;20.35;77.44
77019;BME280;66044;53.142;17.962;2023-08-06T11:40:56;99030.42;;;20.31;77.54
77019;BME280;66044;53.142;17.962;2023-08-06T11:43:23;99014.27;;;20.24;77.55
77019;BME280;66044;53.142;17.962;2023-08-06T11:45:50;99003.91;;;20.23;77.62
77019;BME280;66044;53.142;17.962;2023-08-06T11:48:17;99008.84;;;20.23;77.78
77019;BME280;66044;53.142;17.962;2023-08-06T11:50:44;99007.23;;;20.25;77.86
77019;BME280;66044;53.142;17.962;2023-08-06T11:53:13;99004.55;;;20.23;77.72
77019;BME280;66044;53.142;17.962;2023-08-06T11:55:41;99005.92;;;20.18;77.89
77019;BME280;66044;53.142;17.962;2023-08-06T11:58:10;99002.69;;;20.14;78.09
77019;BME280;66044;53.142;17.962;2023-08-06T12:00:42;99000.56;;;20.12;78.17
77019;BME280;66044;53.142;17.962;2023-08-06T12:03:09;98998.40;;;20.12;78.34
77019;BME280;66044;53.142;17.962;2023-08-06T12:05:37;98992.25;;;20.11;78.31
77019;BME280;66044;53.142;17.962;2023-08-06T12:08:05;98984.44;;;20.09;78.55
77019;BME280;66044;53.142;17.962;2023-08-06T12:10:32;98979.83;;;20.13;78.38
77019;BME280;66044;53.142;17.962;2023-08-06T12:12:59;98974.41;;;20.12;78.49
77019;BME280;66044;53.142;17.962;2023-08-06T12:15:26;98972.13;;;20.09;78.68
77019;BME280;66044;53.142;17.962;2023-08-06T12:17:52;98981.02;;;20.08;78.63
77019;BME280;66044;53.142;17.962;2023-08-06T12:20:19;98986.83;;;20.07;78.73
77019;BME280;66044;53.142;17.962;2023-08-06T12:22:45;98988.78;;;20.04;78.75
77019;BME280;66044;53.142;17.962;2023-08-06T12:25:13;98986.58;;;20.02;78.95
77019;BME280;66044;53.142;17.962;2023-08-06T12:27:43;98986.73;;;19.99;79.11
77019;BME280;66044;53.142;17.962;2023-08-06T12:30:11;98984.97;;;19.99;79.31
77019;BME280;66044;53.142;17.962;2023-08-06T12:32:38;98982.34;;;20.00;79.38
77019;BME280;66044;53.142;17.962;2023-08-06T12:35:05;98982.10;;;20.00;79.46
77019;BME280;66044;53.142;17.962;2023-08-06T12:37:34;98983.88;;;20.00;79.31
77019;BME280;66044;53.142;17.962;2023-08-06T12:40:00;98977.06;;;19.99;79.51
77019;BME280;66044;53.142;17.962;2023-08-06T12:42:27;98975.08;;;19.98;79.65
77019;BME280;66044;53.142;17.962;2023-08-06T12:44:53;98967.05;;;19.98;79.85
77019;BME280;66044;53.142;17.962;2023-08-06T12:47:19;98961.76;;;20.01;79.92
77019;BME280;66044;53.142;17.962;2023-08-06T12:49:46;98947.09;;;20.05;79.99